Time;durP1;ratioP1;P1;durP2;ratioP2;P2;SDS_P1;SDS_P2;PMS_P1;PMS_P2;Temp;Humidity;BMP_temperature;BMP_pressure;BME280_temperature;BME280_humidity;BME280_pressure;Samples;Min_cycle;Max_cycle;Signal;HPM_P1;HPM_P2
2021/08/08 00:01:43;;;;;;;4.53;1.40;;;16.90;99.90;;;;;;4959805;28;20450;-90
2021/08/08 00:04:10;;;;;;;2.17;1.83;;;16.90;99.90;;;;;;4955721;28;20449;-90
2021/08/08 00:06:36;;;;;;;3.90;1.50;;;17.00;99.90;;;;;;4957038;28;20456;-89
2021/08/08 00:09:03;;;;;;;4.60;1.67;;;17.00;99.90;;;;;;4972106;28;20511;-89
2021/08/08 00:11:31;;;;;;;1.90;1.40;;;17.10;99.90;;;;;;4977330;28;20487;-89
2021/08/08 00:13:58;;;;;;;1.70;1.53;;;17.00;99.90;;;;;;4974510;28;20460;-88
2021/08/08 00:16:27;;;;;;;2.87;1.40;;;17.00;99.90;;;;;;4960043;28;20445;-90
2021/08/08 00:18:53;;;;;;;1.97;1.40;;;17.00;99.90;;;;;;4970190;28;20437;-89
2021/08/08 00:21:21;;;;;;;3.57;1.70;;;17.00;99.90;;;;;;4980912;28;20457;-88
2021/08/08 00:23:48;;;;;;;2.43;2.00;;;17.00;99.90;;;;;;4985238;28;20440;-88
2021/08/08 00:26:14;;;;;;;13.57;2.13;;;17.00;99.90;;;;;;4999427;28;20452;-89
2021/08/08 00:28:44;;;;;;;5.53;1.40;;;17.00;99.90;;;;;;4986091;28;20445;-89
2021/08/08 00:31:10;;;;;;;1.80;1.70;;;17.00;99.90;;;;;;4975770;28;20511;-89
2021/08/08 00:33:37;;;;;;;2.93;1.50;;;16.90;99.90;;;;;;4970724;28;20804;-90
2021/08/08 00:36:04;;;;;;;4.17;1.67;;;16.90;99.90;;;;;;4956350;28;20464;-90
2021/08/08 00:38:30;;;;;;;2.10;1.80;;;16.90;99.90;;;;;;4955572;28;20460;-89
2021/08/08 00:41:04;;;;;;;1.63;1.53;;;16.90;99.90;;;;;;4970952;28;20464;-91
2021/08/08 00:43:30;;;;;;;4.10;1.67;;;16.90;99.90;;;;;;4977955;28;20462;-90
2021/08/08 00:45:59;;;;;;;2.60;2.20;;;16.90;99.90;;;;;;4979513;28;20452;-89
2021/08/08 00:48:26;;;;;;;4.33;1.87;;;16.90;99.90;;;;;;4986826;28;20435;-89
2021/08/08 00:50:54;;;;;;;2.50;1.53;;;16.90;99.90;;;;;;4984755;28;20544;-89
2021/08/08 00:53:21;;;;;;;3.40;1.53;;;16.90;99.90;;;;;;4956979;29;20455;-89
2021/08/08 00:55:48;;;;;;;6.33;1.90;;;16.90;99.90;;;;;;4956839;28;20447;-90
2021/08/08 00:58:15;;;;;;;3.63;2.00;;;16.90;99.90;;;;;;4964444;28;20461;-90
2021/08/08 01:00:42;;;;;;;9.60;1.70;;;16.90;99.90;;;;;;4979462;28;20458;-89
2021/08/08 01:03:13;;;;;;;3.17;1.50;;;17.00;99.90;;;;;;4996145;28;20443;-89
2021/08/08 01:05:45;;;;;;;1.53;1.43;;;17.00;99.90;;;;;;4965057;28;20457;-89
2021/08/08 01:08:17;;;;;;;3.70;1.50;;;17.00;99.90;;;;;;4969476;28;20455;-89
2021/08/08 01:10:44;;;;;;;2.23;1.67;;;17.00;99.90;;;;;;4956425;28;20489;-90
2021/08/08 01:13:13;;;;;;;1.90;1.80;;;17.00;99.90;;;;;;4956532;28;20463;-90
2021/08/08 01:15:41;;;;;;;4.70;1.70;;;16.90;99.90;;;;;;4956759;28;20455;-89
2021/08/08 01:18:13;;;;;;;4.10;1.63;;;16.90;99.90;;;;;;4956202;28;20945;-89
2021/08/08 01:20:40;;;;;;;12.43;2.13;;;16.90;99.90;;;;;;4960617;28;20476;-88
2021/08/08 01:23:09;;;;;;;1.77;1.47;;;16.80;99.90;;;;;;4974029;29;20985;-89
2021/08/08 01:25:38;;;;;;;4.67;2.30;;;16.80;99.90;;;;;;4981056;28;20448;-88
2021/08/08 01:28:06;;;;;;;4.33;1.57;;;16.80;99.90;;;;;;4987610;28;20449;-91
2021/08/08 01:30:33;;;;;;;2.07;1.30;;;16.80;99.90;;;;;;4992128;28;20452;-91
2021/08/08 01:33:03;;;;;;;2.73;1.40;;;16.80;99.90;;;;;;4978241;28;20451;-89
2021/08/08 01:35:30;;;;;;;5.03;1.83;;;16.70;99.90;;;;;;4977042;28;20451;-90
2021/08/08 01:37:57;;;;;;;2.23;1.83;;;16.70;99.90;;;;;;4976877;28;20431;-89
2021/08/08 01:40:32;;;;;;;3.47;1.73;;;16.70;99.90;;;;;;4975842;28;20481;-89
2021/08/08 01:43:05;;;;;;;1.60;1.50;;;16.70;99.90;;;;;;4975385;28;20455;-90
2021/08/08 01:45:34;;;;;;;1.70;1.60;;;16.80;99.90;;;;;;4974015;28;20467;-89
2021/08/08 01:48:03;;;;;;;3.10;1.77;;;16.70;99.90;;;;;;4975116;28;20455;-89
2021/08/08 01:50:32;;;;;;;4.37;1.70;;;16.80;99.90;;;;;;4985699;28;20475;-91
2021/08/08 01:52:59;;;;;;;4.40;1.50;;;16.80;99.90;;;;;;4990671;28;20437;-90
2021/08/08 01:55:27;;;;;;;2.00;1.30;;;16.80;99.90;;;;;;4974732;28;20515;-90
2021/08/08 01:57:54;;;;;;;4.83;1.63;;;16.80;99.90;;;;;;4973828;28;20970;-89
2021/08/08 02:00:25;;;;;;;2.87;1.13;;;16.80;99.90;;;;;;4974159;28;20477;-90
2021/08/08 02:02:54;;;;;;;3.23;1.50;;;16.80;99.90;;;;;;4974370;28;20464;-90
2021/08/08 02:05:22;;;;;;;8.00;1.83;;;16.80;99.90;;;;;;4973661;28;20456;-90
2021/08/08 02:07:49;;;;;;;4.53;1.40;;;16.80;99.90;;;;;;4974528;28;20467;-89
2021/08/08 02:10:16;;;;;;;3.63;1.40;;;16.70;99.90;;;;;;4973830;28;20969;-90
2021/08/08 02:12:43;;;;;;;3.70;1.60;;;16.70;99.90;;;;;;4977983;28;20476;-90
2021/08/08 02:15:11;;;;;;;1.70;1.20;;;16.60;99.90;;;;;;4986640;28;20452;-90
2021/08/08 02:17:41;;;;;;;4.60;1.83;;;16.60;99.90;;;;;;4977525;28;20494;-91
2021/08/08 02:20:10;;;;;;;4.10;1.00;;;16.50;99.90;;;;;;4979458;28;20472;-87
2021/08/08 02:22:38;;;;;;;3.57;1.33;;;16.50;99.90;;;;;;4963930;28;20448;-87
2021/08/08 02:25:11;;;;;;;2.13;1.20;;;16.40;99.90;;;;;;4955851;28;20457;-87
2021/08/08 02:27:38;;;;;;;2.10;1.20;;;16.40;99.90;;;;;;4956448;28;20466;-87
2021/08/08 02:30:09;;;;;;;2.63;1.30;;;16.30;99.90;;;;;;4957351;28;20484;-88
2021/08/08 02:32:37;;;;;;;4.30;1.40;;;16.30;99.90;;;;;;4966688;28;20566;-85
2021/08/08 02:35:06;;;;;;;2.03;1.10;;;16.30;99.90;;;;;;4976917;28;20455;-85
2021/08/08 02:37:33;;;;;;;1.63;1.13;;;16.30;99.90;;;;;;4976480;28;20452;-87
2021/08/08 02:39:59;;;;;;;1.80;1.30;;;16.30;99.90;;;;;;4976508;28;20472;-86
2021/08/08 02:42:26;;;;;;;4.97;1.40;;;16.20;99.90;;;;;;4976342;28;20505;-86
2021/08/08 02:44:53;;;;;;;2.60;1.27;;;16.30;99.90;;;;;;4976953;28;20462;-86
2021/08/08 02:47:19;;;;;;;2.97;1.43;;;16.30;99.90;;;;;;4985401;28;20435;-88
2021/08/08 02:49:46;;;;;;;2.10;1.30;;;16.30;99.90;;;;;;4995804;28;20548;-85
2021/08/08 02:52:14;;;;;;;3.00;1.80;;;16.40;99.90;;;;;;4984530;28;20484;-86
2021/08/08 02:54:41;;;;;;;2.00;1.17;;;16.40;99.90;;;;;;4958089;28;20449;-86
2021/08/08 02:57:08;;;;;;;1.20;1.10;;;16.30;99.90;;;;;;4957475;28;20453;-85
2021/08/08 02:59:36;;;;;;;2.60;1.60;;;16.30;99.90;;;;;;4962831;28;20524;-86
2021/08/08 03:02:03;;;;;;;1.70;1.50;;;16.30;99.90;;;;;;4966735;28;20452;-85
2021/08/08 03:04:30;;;;;;;3.30;2.30;;;16.20;99.90;;;;;;4958827;28;20453;-86
2021/08/08 03:06:57;;;;;;;2.43;1.40;;;16.10;99.90;;;;;;4957042;28;20501;-85
2021/08/08 03:09:25;;;;;;;2.27;1.50;;;16.10;99.90;;;;;;4967775;28;20454;-85
2021/08/08 03:11:51;;;;;;;2.03;1.17;;;16.00;99.90;;;;;;4987680;28;20482;-84
2021/08/08 03:14:19;;;;;;;1.73;1.50;;;16.10;99.90;;;;;;4986155;28;20453;-85
2021/08/08 03:16:47;;;;;;;1.50;1.40;;;16.00;99.90;;;;;;4987418;28;20456;-85
2021/08/08 03:19:17;;;;;;;1.93;1.73;;;16.00;99.90;;;;;;4977775;28;20453;-85
2021/08/08 03:21:44;;;;;;;2.13;1.73;;;16.00;99.90;;;;;;4958314;28;20449;-85
2021/08/08 03:24:11;;;;;;;3.20;1.40;;;15.70;99.90;;;;;;4958679;28;20965;-85
2021/08/08 03:26:39;;;;;;;1.70;1.60;;;15.70;99.90;;;;;;4957259;28;20456;-87
2021/08/08 03:29:08;;;;;;;1.53;1.43;;;15.70;99.90;;;;;;4972176;28;20949;-85
2021/08/08 03:31:35;;;;;;;3.37;1.70;;;15.60;99.90;;;;;;4975862;28;20510;-85
2021/08/08 03:34:02;;;;;;;3.30;1.40;;;15.60;99.90;;;;;;4976190;28;21012;-85
2021/08/08 03:36:28;;;;;;;2.30;1.83;;;15.60;99.90;;;;;;4975462;28;20468;-85
2021/08/08 03:38:55;;;;;;;2.87;1.33;;;15.80;99.90;;;;;;4961095;28;20512;-85
2021/08/08 03:41:22;;;;;;;2.10;1.60;;;15.70;99.90;;;;;;4956315;28;20473;-85
2021/08/08 03:43:50;;;;;;;2.20;1.27;;;15.60;99.90;;;;;;4956077;28;20460;-85
2021/08/08 03:46:16;;;;;;;2.90;1.50;;;15.60;99.90;;;;;;4955966;28;20463;-86
2021/08/08 03:48:43;;;;;;;5.83;1.73;;;15.60;99.90;;;;;;4967048;28;20452;-85
2021/08/08 03:51:10;;;;;;;3.80;2.00;;;15.70;99.90;;;;;;4975090;28;20500;-85
2021/08/08 03:53:36;;;;;;;1.40;1.30;;;15.50;99.90;;;;;;4975531;28;20855;-86
2021/08/08 03:56:03;;;;;;;3.40;1.60;;;15.50;99.90;;;;;;4975253;28;20806;-85
2021/08/08 03:58:30;;;;;;;3.00;1.60;;;15.50;99.90;;;;;;4965338;28;20460;-85
2021/08/08 04:01:00;;;;;;;2.80;1.47;;;15.40;99.90;;;;;;4956009;28;20504;-85
2021/08/08 04:03:28;;;;;;;4.30;1.53;;;15.40;99.90;;;;;;4962246;28;20445;-86
2021/08/08 04:05:54;;;;;;;1.73;1.63;;;15.30;99.90;;;;;;4956447;29;20457;-87
2021/08/08 04:08:21;;;;;;;2.77;1.47;;;15.20;99.90;;;;;;4963478;28;20447;-86
2021/08/08 04:10:48;;;;;;;5.57;1.70;;;15.20;99.90;;;;;;4984825;28;20448;-87
2021/08/08 04:13:14;;;;;;;2.97;1.60;;;15.30;99.90;;;;;;4988957;28;20487;-87
2021/08/08 04:15:41;;;;;;;2.10;1.70;;;15.40;99.90;;;;;;4980651;28;20433;-87
2021/08/08 04:18:12;;;;;;;4.70;2.00;;;15.40;99.90;;;;;;4974271;28;20458;-87
2021/08/08 04:20:39;;;;;;;2.40;1.67;;;15.40;99.90;;;;;;4975084;28;21004;-87
2021/08/08 04:23:07;;;;;;;2.30;1.53;;;15.40;99.90;;;;;;4975558;28;20481;-86
2021/08/08 04:25:33;;;;;;;2.63;1.70;;;15.40;99.90;;;;;;4975174;28;20949;-87
2021/08/08 04:28:00;;;;;;;3.20;1.63;;;15.30;99.90;;;;;;4970042;28;20456;-87
2021/08/08 04:30:27;;;;;;;2.83;2.00;;;15.30;99.90;;;;;;4968856;28;20444;-86
2021/08/08 04:32:53;;;;;;;4.60;2.07;;;15.40;99.90;;;;;;4967855;28;21122;-87
2021/08/08 04:35:22;;;;;;;3.37;2.00;;;15.30;99.90;;;;;;4955631;28;20453;-87
2021/08/08 04:37:48;;;;;;;3.43;1.73;;;15.30;99.90;;;;;;4971092;28;20960;-87
2021/08/08 04:40:15;;;;;;;4.63;1.67;;;15.40;99.90;;;;;;4974068;28;20483;-87
2021/08/08 04:42:42;;;;;;;3.60;2.10;;;15.40;99.90;;;;;;4974292;28;20452;-86
2021/08/08 04:45:09;;;;;;;3.27;2.27;;;15.40;99.90;;;;;;4974250;28;20467;-86
2021/08/08 04:47:36;;;;;;;2.37;1.63;;;15.40;99.90;;;;;;4960573;28;20453;-87
2021/08/08 04:50:03;;;;;;;3.50;1.77;;;15.40;99.90;;;;;;4961232;28;20482;-86
2021/08/08 04:52:36;;;;;;;2.97;1.67;;;15.40;99.90;;;;;;4977721;29;20472;-87
2021/08/08 04:55:03;;;;;;;2.03;1.80;;;15.50;99.90;;;;;;4965234;28;20480;-87
2021/08/08 04:57:30;;;;;;;2.50;2.07;;;15.50;99.90;;;;;;4974302;28;20549;-86
2021/08/08 04:59:56;;;;;;;1.80;1.70;;;15.50;99.90;;;;;;4959311;29;20472;-87
2021/08/08 05:02:23;;;;;;;4.97;1.80;;;15.50;99.90;;;;;;4967729;28;20532;-86
2021/08/08 05:04:50;;;;;;;2.90;1.90;;;15.60;99.90;;;;;;4956318;28;20488;-88
2021/08/08 05:07:17;;;;;;;2.30;1.50;;;16.00;99.90;;;;;;4956072;29;20456;-88
2021/08/08 05:09:45;;;;;;;2.07;1.87;;;16.60;99.90;;;;;;4957461;28;20829;-88
2021/08/08 05:12:12;;;;;;;3.93;1.90;;;17.20;99.90;;;;;;4958376;29;20485;-88
2021/08/08 05:14:39;;;;;;;5.30;1.57;;;17.80;99.90;;;;;;4962000;28;20444;-88
2021/08/08 05:17:06;;;;;;;3.63;1.60;;;18.30;99.90;;;;;;4958815;28;20463;-88
2021/08/08 05:19:32;;;;;;;3.00;1.60;;;18.90;99.90;;;;;;4955102;28;20484;-88
2021/08/08 05:21:59;;;;;;;4.67;1.90;;;19.50;99.90;;;;;;4954899;28;20460;-88
2021/08/08 05:24:26;;;;;;;2.33;1.33;;;19.90;99.90;;;;;;4959813;28;20956;-87
2021/08/08 05:26:56;;;;;;;2.20;1.67;;;20.40;99.90;;;;;;4960204;28;20472;-87
2021/08/08 05:29:23;;;;;;;2.77;1.50;;;20.90;99.90;;;;;;4954222;28;20532;-87
2021/08/08 05:31:50;;;;;;;1.90;1.23;;;21.20;99.90;;;;;;4954427;28;20858;-87
2021/08/08 05:34:17;;;;;;;3.33;1.87;;;21.60;99.90;;;;;;4957328;28;20835;-86
2021/08/08 05:36:43;;;;;;;3.03;1.30;;;22.00;99.90;;;;;;4960554;28;20971;-86
2021/08/08 05:39:10;;;;;;;3.70;1.70;;;22.40;99.90;;;;;;4954243;29;20634;-86
2021/08/08 05:41:39;;;;;;;3.10;1.30;;;22.80;99.90;;;;;;4954111;28;20438;-87
2021/08/08 05:44:07;;;;;;;2.40;1.47;;;23.10;99.20;;;;;;4954343;28;20556;-86
2021/08/08 05:46:34;;;;;;;1.80;1.13;;;22.70;98.20;;;;;;4953914;28;20456;-86
2021/08/08 05:49:01;;;;;;;3.23;1.40;;;22.30;98.00;;;;;;4961968;29;20443;-86
2021/08/08 05:51:27;;;;;;;1.83;1.10;;;21.80;98.80;;;;;;4965834;28;20460;-86
2021/08/08 05:53:54;;;;;;;4.83;1.37;;;21.40;99.30;;;;;;4963038;28;20481;-85
2021/08/08 05:56:21;;;;;;;1.30;0.93;;;21.30;99.50;;;;;;4952807;29;20461;-88
2021/08/08 05:58:48;;;;;;;1.77;1.00;;;21.20;99.90;;;;;;4961291;29;20444;-88
2021/08/08 06:01:16;;;;;;;2.67;0.90;;;21.30;99.60;;;;;;4970336;28;20465;-88
2021/08/08 06:03:42;;;;;;;2.40;1.00;;;21.40;99.50;;;;;;4972123;28;20459;-87
2021/08/08 06:06:10;;;;;;;1.30;1.00;;;21.20;99.20;;;;;;4961355;28;20451;-88
2021/08/08 06:08:37;;;;;;;1.30;0.90;;;21.10;99.30;;;;;;4961074;28;20444;-88
2021/08/08 06:11:04;;;;;;;1.00;0.70;;;21.40;99.30;;;;;;4971190;28;20884;-88
2021/08/08 06:13:30;;;;;;;1.63;1.00;;;21.40;98.60;;;;;;4957901;29;20485;-86
2021/08/08 06:16:06;;;;;;;1.57;1.27;;;21.50;98.50;;;;;;4965624;28;20454;-88
2021/08/08 06:18:34;;;;;;;2.30;1.00;;;21.90;98.00;;;;;;4964537;29;20443;-87
2021/08/08 06:21:01;;;;;;;1.20;0.90;;;22.00;97.50;;;;;;4960765;28;20534;-87
2021/08/08 06:23:28;;;;;;;2.60;0.80;;;22.00;97.60;;;;;;4957979;29;20449;-88
2021/08/08 06:25:54;;;;;;;1.30;0.90;;;21.80;97.40;;;;;;4957344;28;20446;-87
2021/08/08 06:28:21;;;;;;;1.53;1.37;;;21.80;97.70;;;;;;4957558;28;20448;-87
2021/08/08 06:30:48;;;;;;;1.83;1.03;;;22.20;97.80;;;;;;4958076;28;20478;-89
2021/08/08 06:33:16;;;;;;;1.60;1.00;;;22.60;96.80;;;;;;4957822;28;20479;-90
2021/08/08 06:35:44;;;;;;;3.03;1.03;;;22.80;95.80;;;;;;4957511;28;20879;-88
2021/08/08 06:38:11;;;;;;;1.37;0.70;;;22.80;95.70;;;;;;4961940;28;20501;-89
2021/08/08 06:40:37;;;;;;;1.57;1.20;;;22.70;95.60;;;;;;4955521;29;21242;-88
2021/08/08 06:43:04;;;;;;;3.00;1.00;;;22.70;95.60;;;;;;4974366;29;20440;-88
2021/08/08 06:45:32;;;;;;;1.33;0.87;;;22.70;95.10;;;;;;4977453;28;20447;-89
2021/08/08 06:48:00;;;;;;;2.03;0.80;;;22.80;95.00;;;;;;4976132;28;20478;-89
2021/08/08 06:50:27;;;;;;;1.43;0.90;;;22.80;95.60;;;;;;4959870;29;20474;-89
2021/08/08 06:52:55;;;;;;;1.57;1.00;;;23.00;94.90;;;;;;4972892;28;20474;-91
2021/08/08 06:55:22;;;;;;;1.80;1.13;;;23.20;94.50;;;;;;4983388;28;20458;-90
2021/08/08 06:57:49;;;;;;;3.20;1.20;;;23.40;94.70;;;;;;4968540;29;20452;-90
2021/08/08 07:00:16;;;;;;;3.40;1.00;;;23.60;94.10;;;;;;4961615;28;20483;-89
2021/08/08 07:02:45;;;;;;;2.80;1.00;;;24.30;93.70;;;;;;4956613;28;20441;-88
2021/08/08 07:05:12;;;;;;;1.73;1.00;;;24.70;92.60;;;;;;4961466;28;20487;-88
2021/08/08 07:07:38;;;;;;;1.93;0.90;;;24.70;91.40;;;;;;4957804;28;20444;-90
2021/08/08 07:10:07;;;;;;;3.00;1.17;;;24.80;90.90;;;;;;4957215;28;20479;-89
2021/08/08 07:12:36;;;;;;;1.87;1.00;;;24.90;90.50;;;;;;4957195;28;20476;-88
2021/08/08 07:15:03;;;;;;;4.50;1.20;;;24.80;90.40;;;;;;4957027;28;20448;-89
2021/08/08 07:17:30;;;;;;;2.20;1.33;;;24.90;89.40;;;;;;4957221;29;20437;-89
2021/08/08 07:19:57;;;;;;;6.53;1.10;;;25.00;89.90;;;;;;4956421;28;20472;-90
2021/08/08 07:22:24;;;;;;;3.00;1.40;;;25.60;88.60;;;;;;4956764;29;20445;-89
2021/08/08 07:24:52;;;;;;;2.70;1.37;;;26.60;85.80;;;;;;4958159;28;20449;-90
2021/08/08 07:27:20;;;;;;;1.27;0.93;;;26.50;81.70;;;;;;4957810;29;20536;-89
2021/08/08 07:29:51;;;;;;;5.10;1.17;;;26.50;82.20;;;;;;4957558;29;20986;-90
2021/08/08 07:32:18;;;;;;;3.17;0.93;;;26.20;83.60;;;;;;4957576;29;20973;-89
2021/08/08 07:34:44;;;;;;;3.50;1.40;;;25.80;81.20;;;;;;4957318;29;20520;-89
2021/08/08 07:37:11;;;;;;;1.47;1.13;;;25.40;83.50;;;;;;4958332;28;20452;-91
2021/08/08 07:39:38;;;;;;;3.53;1.00;;;25.70;83.30;;;;;;4956589;28;20472;-89
2021/08/08 07:42:05;;;;;;;2.77;1.30;;;25.50;84.10;;;;;;4957500;28;20449;-90
2021/08/08 07:44:33;;;;;;;2.47;0.93;;;25.70;83.50;;;;;;4956684;28;20449;-90
2021/08/08 07:47:00;;;;;;;3.23;1.60;;;25.60;83.90;;;;;;4956282;28;20449;-90
2021/08/08 07:49:26;;;;;;;2.83;1.50;;;25.80;83.70;;;;;;4955782;28;20441;-87
2021/08/08 07:51:53;;;;;;;1.70;1.03;;;26.20;82.90;;;;;;4957020;28;20463;-88
2021/08/08 07:54:21;;;;;;;2.63;1.00;;;26.80;80.30;;;;;;4958433;29;20477;-88
2021/08/08 07:56:48;;;;;;;4.20;1.27;;;26.40;81.30;;;;;;4958448;28;20536;-87
2021/08/08 07:59:15;;;;;;;1.97;1.00;;;25.80;80.90;;;;;;4958754;29;20820;-87
2021/08/08 08:01:43;;;;;;;1.80;1.20;;;25.00;82.60;;;;;;4983757;28;20436;-92
2021/08/08 08:04:10;;;;;;;3.03;1.30;;;24.10;83.80;;;;;;4963750;29;20441;-88
2021/08/08 08:06:36;;;;;;;2.27;1.27;;;24.60;85.90;;;;;;4954821;29;20456;-88
2021/08/08 08:09:03;;;;;;;2.97;1.40;;;26.10;82.80;;;;;;4959021;29;20441;-87
2021/08/08 08:11:30;;;;;;;2.20;1.10;;;27.10;77.80;;;;;;4958408;28;20477;-87
2021/08/08 08:13:57;;;;;;;3.00;1.80;;;27.90;75.90;;;;;;4960458;28;20490;-87
2021/08/08 08:16:23;;;;;;;3.53;1.20;;;29.00;71.10;;;;;;4970287;29;20465;-88
2021/08/08 08:18:54;;;;;;;1.27;1.07;;;28.90;68.20;;;;;;4976961;29;20445;-88
2021/08/08 08:21:20;;;;;;;2.70;1.40;;;28.20;69.90;;;;;;4978208;28;20479;-90
2021/08/08 08:23:47;;;;;;;2.93;1.60;;;28.00;70.70;;;;;;4962835;28;20443;-87
2021/08/08 08:26:13;;;;;;;2.30;1.00;;;27.10;71.20;;;;;;4956370;28;20445;-88
2021/08/08 08:28:40;;;;;;;2.00;1.13;;;27.10;71.10;;;;;;4957999;28;20992;-89
2021/08/08 08:31:08;;;;;;;1.47;1.00;;;26.60;69.90;;;;;;4962333;28;20481;-89
2021/08/08 08:33:35;;;;;;;1.73;1.30;;;25.60;73.90;;;;;;4965182;29;20485;-90
2021/08/08 08:36:03;;;;;;;3.57;1.30;;;25.70;74.50;;;;;;4957331;29;20445;-90
2021/08/08 08:38:30;;;;;;;1.93;1.20;;;26.40;75.50;;;;;;4964846;28;20451;-89
2021/08/08 08:40:58;;;;;;;2.23;1.20;;;25.80;75.40;;;;;;4958039;28;20480;-91
2021/08/08 08:43:26;;;;;;;1.60;1.33;;;24.70;78.50;;;;;;4956282;28;20468;-88
2021/08/08 08:45:53;;;;;;;1.93;1.27;;;23.80;81.40;;;;;;4953473;28;20460;-89
2021/08/08 08:48:21;;;;;;;1.47;0.93;;;23.60;84.00;;;;;;4953801;28;20455;-89
2021/08/08 08:50:52;;;;;;;3.17;1.07;;;24.40;82.80;;;;;;4954102;29;20472;-87
2021/08/08 08:53:22;;;;;;;3.23;2.20;;;25.20;81.90;;;;;;4953958;28;20520;-88
2021/08/08 08:55:50;;;;;;;2.17;1.00;;;25.30;79.80;;;;;;4958329;28;20512;-88
2021/08/08 08:58:17;;;;;;;3.00;1.47;;;25.20;76.00;;;;;;4955278;28;20457;-88
2021/08/08 09:00:44;;;;;;;2.40;1.40;;;25.10;76.40;;;;;;4964091;29;20461;-89
2021/08/08 09:03:11;;;;;;;2.43;1.30;;;25.00;76.20;;;;;;4976634;29;20425;-92
2021/08/08 09:05:38;;;;;;;2.00;1.30;;;24.70;76.30;;;;;;4956197;28;20437;-89
2021/08/08 09:08:05;;;;;;;2.83;1.90;;;25.30;75.00;;;;;;4954130;28;20441;-88
2021/08/08 09:10:33;;;;;;;2.30;1.20;;;25.50;73.20;;;;;;4954937;28;20484;-88
2021/08/08 09:13:02;;;;;;;1.50;1.40;;;25.20;74.60;;;;;;4954239;29;20452;-85
2021/08/08 09:15:34;;;;;;;2.10;1.10;;;25.20;75.00;;;;;;4953567;29;20449;-86
2021/08/08 09:18:15;;;;;;;2.60;1.37;;;26.30;73.30;;;;;;4953768;28;20540;-88
2021/08/08 09:20:46;;;;;;;2.83;1.07;;;27.70;68.10;;;;;;4952650;29;20570;-88
2021/08/08 09:23:14;;;;;;;1.63;1.13;;;28.90;64.50;;;;;;4952006;29;20526;-87
2021/08/08 09:25:50;;;;;;;1.83;1.37;;;27.80;66.60;;;;;;4952854;29;20448;-88
2021/08/08 09:28:17;;;;;;;2.90;1.30;;;27.90;65.30;;;;;;4954119;28;21719;-88
2021/08/08 09:30:44;;;;;;;1.87;1.00;;;29.00;63.50;;;;;;4952930;29;20563;-87
2021/08/08 09:33:12;;;;;;;1.70;1.20;;;29.20;63.90;;;;;;4953608;29;20488;-86
2021/08/08 09:35:41;;;;;;;3.00;1.63;;;29.10;62.10;;;;;;4951729;29;20441;-87
2021/08/08 09:38:09;;;;;;;2.17;1.50;;;28.90;60.40;;;;;;4955140;28;20471;-87
2021/08/08 09:40:38;;;;;;;1.80;1.07;;;29.50;59.70;;;;;;4954251;29;20471;-86
2021/08/08 09:43:07;;;;;;;2.73;1.10;;;29.10;59.10;;;;;;4955314;29;20873;-86
2021/08/08 09:45:38;;;;;;;1.67;1.07;;;29.90;59.60;;;;;;4953115;29;20521;-86
2021/08/08 09:48:06;;;;;;;2.63;1.40;;;28.90;59.00;;;;;;4956368;29;20453;-86
2021/08/08 09:50:34;;;;;;;1.60;0.93;;;28.40;59.70;;;;;;4972745;28;20468;-87
2021/08/08 09:53:03;;;;;;;2.53;1.53;;;27.90;59.90;;;;;;4953948;28;20452;-85
2021/08/08 09:55:33;;;;;;;1.30;1.07;;;28.30;62.10;;;;;;4952166;29;20453;-87
2021/08/08 09:58:01;;;;;;;2.27;1.30;;;29.00;61.10;;;;;;4951520;29;20972;-87
2021/08/08 10:00:34;;;;;;;3.00;1.77;;;28.70;59.40;;;;;;4952072;29;20455;-88
2021/08/08 10:03:02;;;;;;;2.20;1.27;;;27.40;61.40;;;;;;4956375;29;20462;-87
2021/08/08 10:05:29;;;;;;;2.17;1.40;;;26.70;65.20;;;;;;4952016;28;21004;-86
2021/08/08 10:07:56;;;;;;;2.97;1.67;;;26.80;65.90;;;;;;4952331;28;20459;-88
2021/08/08 10:10:24;;;;;;;2.50;1.43;;;27.40;64.90;;;;;;4953347;28;21086;-88
2021/08/08 10:13:25;;;;;;;3.20;1.57;;;27.40;64.20;;;;;;4952009;29;20453;-88
2021/08/08 10:15:55;;;;;;;3.57;1.90;;;27.30;64.10;;;;;;4909771;28;20499;-88
2021/08/08 10:18:27;;;;;;;1.90;1.50;;;27.60;62.90;;;;;;4952333;28;20447;-86
2021/08/08 10:20:56;;;;;;;1.50;1.30;;;28.40;62.50;;;;;;4952021;28;20468;-87
2021/08/08 10:23:24;;;;;;;3.07;1.43;;;29.20;59.80;;;;;;4953386;29;20452;-86
2021/08/08 10:25:53;;;;;;;1.57;1.40;;;30.00;58.10;;;;;;4952559;28;20519;-87
2021/08/08 10:28:21;;;;;;;1.70;1.40;;;30.50;56.50;;;;;;4952376;28;20437;-88
2021/08/08 10:30:50;;;;;;;2.60;1.43;;;31.20;55.00;;;;;;4952178;28;21141;-87
2021/08/08 10:33:18;;;;;;;1.67;1.20;;;31.00;54.90;;;;;;4954115;28;20444;-88
2021/08/08 10:35:47;;;;;;;2.60;1.93;;;31.10;54.60;;;;;;4952103;28;20449;-88
2021/08/08 10:38:15;;;;;;;1.77;1.30;;;32.10;52.70;;;;;;4952851;28;20452;-89
2021/08/08 10:40:44;;;;;;;2.17;1.13;;;31.90;51.10;;;;;;4954963;28;20475;-90
2021/08/08 10:43:23;;;;;;;3.23;1.50;;;31.80;50.80;;;;;;4955631;28;20452;-87
2021/08/08 10:45:50;;;;;;;3.20;1.10;;;31.20;52.40;;;;;;4952997;29;20488;-87
2021/08/08 10:48:18;;;;;;;1.80;1.03;;;31.20;52.40;;;;;;4956220;28;20448;-88
2021/08/08 10:50:48;;;;;;;1.87;1.27;;;31.00;52.10;;;;;;4955860;28;20464;-87
2021/08/08 10:53:22;;;;;;;2.80;1.20;;;31.20;52.00;;;;;;4956227;28;20966;-87
2021/08/08 10:55:51;;;;;;;2.37;1.50;;;30.90;52.70;;;;;;4964236;28;20926;-87
2021/08/08 10:58:21;;;;;;;2.20;1.40;;;30.60;53.30;;;;;;4955467;29;20452;-87
2021/08/08 11:00:47;;;;;;;2.80;1.70;;;30.30;54.40;;;;;;4956694;28;20832;-88
2021/08/08 11:03:15;;;;;;;2.00;1.80;;;30.80;53.30;;;;;;4956439;28;20455;-87
2021/08/08 11:08:16;;;;;;;1.87;1.13;;;32.70;48.80;;;;;;4967411;28;20457;-81
2021/08/08 11:10:45;;;;;;;3.33;1.63;;;31.70;47.50;;;;;;4970599;28;20827;-78
2021/08/08 11:13:23;;;;;;;1.17;1.00;;;30.60;49.10;;;;;;4971775;28;20445;-81
2021/08/08 11:15:50;;;;;;;3.20;1.40;;;29.00;51.30;;;;;;4972095;28;20428;-81
2021/08/08 11:18:18;;;;;;;1.97;1.20;;;28.90;51.10;;;;;;4962930;28;20449;-81
2021/08/08 11:20:46;;;;;;;3.57;1.40;;;29.00;51.40;;;;;;4959525;28;20815;-80
2021/08/08 11:23:13;;;;;;;2.23;1.23;;;29.70;51.60;;;;;;4963364;29;20448;-81
2021/08/08 11:25:42;;;;;;;2.77;1.40;;;29.20;52.00;;;;;;4962746;29;20597;-80
2021/08/08 11:28:09;;;;;;;1.70;1.43;;;28.50;53.50;;;;;;4963000;29;20466;-80
2021/08/08 11:30:41;;;;;;;2.00;1.20;;;28.20;53.60;;;;;;4964511;28;20513;-81
2021/08/08 11:33:09;;;;;;;2.47;1.40;;;26.70;55.00;;;;;;4966749;29;21000;-80
2021/08/08 11:35:36;;;;;;;2.40;1.60;;;26.00;57.40;;;;;;4962111;28;20843;-81
2021/08/08 11:38:13;;;;;;;2.60;1.23;;;26.30;58.10;;;;;;4960989;29;20472;-81
2021/08/08 11:40:43;;;;;;;3.20;1.37;;;26.30;58.70;;;;;;4960651;29;20445;-81
2021/08/08 11:43:09;;;;;;;4.30;1.60;;;26.10;59.40;;;;;;4959434;29;20449;-81
2021/08/08 11:45:38;;;;;;;2.93;1.30;;;25.20;59.40;;;;;;4961105;28;20440;-80
2021/08/08 11:48:06;;;;;;;2.70;1.50;;;24.60;60.70;;;;;;4960831;28;20527;-81
2021/08/08 11:50:33;;;;;;;2.00;1.10;;;24.70;62.50;;;;;;4962163;28;21104;-81
2021/08/08 11:53:02;;;;;;;2.83;2.00;;;24.90;61.90;;;;;;4960109;29;20975;-81
2021/08/08 11:55:31;;;;;;;3.90;1.47;;;25.20;62.80;;;;;;4955134;29;20489;-81
2021/08/08 11:58:07;;;;;;;2.87;1.90;;;25.20;62.90;;;;;;4960238;29;20880;-81
2021/08/08 12:00:36;;;;;;;3.63;1.90;;;25.60;61.50;;;;;;4960054;28;20451;-80
2021/08/08 12:03:03;;;;;;;3.47;1.87;;;26.10;61.00;;;;;;4960566;29;20456;-81
2021/08/08 12:05:31;;;;;;;1.87;1.43;;;28.60;58.60;;;;;;4961123;29;20765;-81
2021/08/08 12:07:59;;;;;;;4.67;2.57;;;29.90;55.60;;;;;;4956755;29;20476;-82
2021/08/08 12:10:32;;;;;;;2.87;2.03;;;29.80;55.10;;;;;;4954105;29;20445;-81
2021/08/08 12:12:59;;;;;;;1.80;1.37;;;29.70;55.80;;;;;;4954638;29;20983;-83
2021/08/08 12:15:34;;;;;;;2.20;1.83;;;28.40;56.50;;;;;;4952813;29;20484;-83
2021/08/08 12:18:02;;;;;;;3.83;1.60;;;27.00;59.00;;;;;;4950611;29;20857;-82
2021/08/08 12:20:36;;;;;;;3.53;1.83;;;26.10;62.30;;;;;;4955078;29;20452;-84
2021/08/08 12:23:05;;;;;;;3.00;1.77;;;25.50;64.00;;;;;;4951924;29;20436;-82
2021/08/08 12:25:33;;;;;;;3.07;1.87;;;25.10;62.80;;;;;;4948069;29;20481;-83
2021/08/08 12:28:00;;;;;;;2.70;2.50;;;25.40;61.70;;;;;;4948703;29;20482;-82
2021/08/08 12:30:28;;;;;;;6.23;3.90;;;26.40;58.10;;;;;;4949799;29;20441;-83
2021/08/08 12:33:04;;;;;;;4.50;2.50;;;28.10;54.50;;;;;;4947419;29;20466;-83
2021/08/08 12:35:36;;;;;;;2.50;2.20;;;30.50;50.40;;;;;;4947707;29;20496;-83
2021/08/08 12:38:07;;;;;;;2.70;1.67;;;31.80;48.00;;;;;;4964642;29;20474;-83
2021/08/08 12:40:46;;;;;;;1.30;1.17;;;30.90;47.40;;;;;;4952599;29;20546;-83
2021/08/08 12:43:19;;;;;;;2.47;1.07;;;29.90;48.80;;;;;;4948767;29;20480;-82
2021/08/08 12:45:46;;;;;;;2.50;1.57;;;29.80;49.50;;;;;;4950440;29;20457;-83
2021/08/08 12:48:13;;;;;;;3.23;1.50;;;30.30;48.30;;;;;;4951286;29;21012;-83
2021/08/08 12:50:41;;;;;;;5.73;3.80;;;30.00;48.60;;;;;;4954575;29;20444;-82
2021/08/08 12:53:08;;;;;;;4.97;3.13;;;29.50;49.40;;;;;;4951380;29;20542;-87
2021/08/08 12:55:37;;;;;;;2.73;2.10;;;29.80;49.40;;;;;;4948497;29;20998;-87